createdAt,value
2019-03-12T00:00:53.101Z,1.90
2019-03-12T00:03:21.392Z,1.90
2019-03-12T00:05:49.683Z,2.00
2019-03-12T00:08:20.765Z,2.00
2019-03-12T00:10:50.165Z,2.00
2019-03-12T00:13:18.549Z,2.00
2019-03-12T00:15:46.959Z,2.00
2019-03-12T00:18:15.365Z,2.00
2019-03-12T00:20:45.343Z,1.90
2019-03-12T00:23:13.721Z,2.00
2019-03-12T00:25:42.019Z,2.00
2019-03-12T00:28:10.269Z,2.00
2019-03-12T00:30:38.520Z,2.00
2019-03-12T00:33:06.790Z,2.00
2019-03-12T00:35:35.049Z,2.00
2019-03-12T00:38:03.296Z,2.10
2019-03-12T00:40:32.583Z,2.00
2019-03-12T00:43:00.871Z,2.10
2019-03-12T00:45:29.199Z,2.00
2019-03-12T00:47:57.579Z,2.00
2019-03-12T00:50:26.302Z,2.10
2019-03-12T00:52:54.574Z,2.10
2019-03-12T00:55:22.876Z,2.10
2019-03-12T00:57:51.253Z,2.00
2019-03-12T01:00:19.789Z,2.00
2019-03-12T01:02:48.161Z,2.00
2019-03-12T01:05:16.525Z,2.10
2019-03-12T01:07:46.469Z,2.10
2019-03-12T01:10:15.174Z,2.10
2019-03-12T01:12:44.520Z,2.10
2019-03-12T01:15:13.907Z,2.10
2019-03-12T01:17:42.262Z,2.10
2019-03-12T01:20:15.206Z,2.10
2019-03-12T01:22:43.554Z,2.10
2019-03-12T01:25:13.051Z,2.10
2019-03-12T01:27:43.027Z,2.00
2019-03-12T01:30:20.203Z,2.10
2019-03-12T01:32:48.504Z,2.00
2019-03-12T01:35:16.848Z,2.00
2019-03-12T01:37:48.077Z,2.00
2019-03-12T01:40:16.412Z,2.00
2019-03-12T01:42:44.702Z,2.00
2019-03-12T01:45:14.109Z,1.90
2019-03-12T01:47:42.449Z,1.90
2019-03-12T01:50:15.102Z,2.00
2019-03-12T01:52:44.636Z,2.00
2019-03-12T01:55:14.395Z,1.90
2019-03-12T01:57:42.701Z,2.00
2019-03-12T02:00:19.238Z,2.00
2019-03-12T02:02:47.553Z,2.00
2019-03-12T02:05:15.846Z,2.00
2019-03-12T02:07:44.408Z,2.00
2019-03-12T02:10:14.188Z,2.00
2019-03-12T02:12:42.525Z,2.00
2019-03-12T02:15:16.709Z,2.00
2019-03-12T02:17:45.648Z,2.00
2019-03-12T02:20:17.248Z,2.00
2019-03-12T02:22:45.595Z,2.00
2019-03-12T02:25:18.662Z,2.00
2019-03-12T02:27:47.030Z,2.00
2019-03-12T02:30:17.772Z,2.00
2019-03-12T02:32:46.193Z,2.00
2019-03-12T02:35:14.717Z,2.00
2019-03-12T02:37:43.006Z,2.00
2019-03-12T02:40:12.424Z,2.00
2019-03-12T02:42:40.695Z,2.00
2019-03-12T02:45:14.673Z,1.90
2019-03-12T02:47:42.995Z,2.00
2019-03-12T02:50:13.459Z,2.00
2019-03-12T02:52:42.657Z,2.00
2019-03-12T02:55:11.462Z,1.90
2019-03-12T02:57:39.760Z,1.90
2019-03-12T03:00:17.474Z,1.90
2019-03-12T03:02:45.789Z,1.90
2019-03-12T03:05:14.079Z,1.90
2019-03-12T03:07:44.004Z,1.90
2019-03-12T03:10:13.759Z,1.90
2019-03-12T03:12:42.170Z,1.90
2019-03-12T03:15:22.390Z,2.00
2019-03-12T03:17:50.688Z,1.90
2019-03-12T03:20:18.987Z,1.90
2019-03-12T03:22:47.441Z,1.90
2019-03-12T03:25:16.811Z,1.90
2019-03-12T03:27:45.092Z,1.90
2019-03-12T03:30:18.462Z,1.90
2019-03-12T03:32:46.810Z,1.90
2019-03-12T03:35:19.297Z,1.90
2019-03-12T03:37:47.671Z,1.90
2019-03-12T03:40:21.065Z,1.90
2019-03-12T03:42:49.465Z,1.90
2019-03-12T03:45:17.842Z,1.90
2019-03-12T03:47:46.158Z,1.90
2019-03-12T03:50:17.968Z,1.90
2019-03-12T03:52:46.304Z,1.80
2019-03-12T03:55:16.677Z,1.90
2019-03-12T03:57:44.989Z,1.80
2019-03-12T04:00:18.303Z,1.80
2019-03-12T04:02:46.670Z,1.70
2019-03-12T04:05:14.987Z,1.80
2019-03-12T04:07:43.291Z,1.80
2019-03-12T04:10:13.423Z,1.80
2019-03-12T04:12:41.756Z,1.70
2019-03-12T04:15:15.173Z,1.70
2019-03-12T04:17:42.773Z,1.70
2019-03-12T04:20:12.649Z,1.80
2019-03-12T04:22:41.041Z,1.70
2019-03-12T04:25:09.929Z,1.80
2019-03-12T04:27:38.246Z,1.70
2019-03-12T04:30:12.314Z,1.70
2019-03-12T04:32:40.633Z,1.80
2019-03-12T04:35:12.023Z,1.70
2019-03-12T04:37:40.771Z,1.70
2019-03-12T04:40:11.261Z,1.70
2019-03-12T04:42:39.542Z,1.80
2019-03-12T04:45:10.781Z,1.80
2019-03-12T04:47:39.133Z,1.80
2019-03-12T04:50:08.973Z,1.80
2019-03-12T04:52:37.282Z,1.80
2019-03-12T04:55:08.656Z,1.80
2019-03-12T04:57:36.965Z,1.80
2019-03-12T05:00:08.743Z,1.80
2019-03-12T05:02:37.044Z,1.80
2019-03-12T05:05:06.253Z,1.80
2019-03-12T05:07:34.592Z,1.80
2019-03-12T05:10:03.675Z,1.80
2019-03-12T05:12:31.978Z,1.80
2019-03-12T05:15:00.327Z,1.80
2019-03-12T05:17:28.705Z,1.80
2019-03-12T05:19:57.039Z,1.80
2019-03-12T05:22:29.392Z,1.80
2019-03-12T05:24:57.702Z,1.80
2019-03-12T05:27:26.068Z,1.80
2019-03-12T05:29:54.364Z,1.80
2019-03-12T05:32:22.648Z,1.80
2019-03-12T05:34:50.989Z,1.90
2019-03-12T05:37:19.368Z,1.90
2019-03-12T05:39:50.955Z,1.90
2019-03-12T05:42:19.280Z,1.80
2019-03-12T05:44:48.206Z,1.90
2019-03-12T05:47:16.577Z,1.90
2019-03-12T05:49:44.894Z,1.90
2019-03-12T05:52:13.179Z,1.80
2019-03-12T05:54:41.457Z,1.90
2019-03-12T05:57:09.712Z,1.90
2019-03-12T05:59:38.024Z,1.90
2019-03-12T06:02:08.045Z,2.00
2019-03-12T06:04:37.935Z,2.00
2019-03-12T06:07:06.157Z,2.00
2019-03-12T06:09:34.393Z,2.10
2019-03-12T06:12:02.606Z,2.00
2019-03-12T06:14:30.828Z,2.10
2019-03-12T06:16:59.075Z,2.10
2019-03-12T06:19:27.301Z,2.00
2019-03-12T06:21:55.556Z,2.00
2019-03-12T06:24:23.881Z,2.10
2019-03-12T06:26:54.327Z,2.20
2019-03-12T06:29:22.566Z,2.20
2019-03-12T06:31:55.290Z,2.20
2019-03-12T06:34:26.829Z,2.20
2019-03-12T06:36:56.673Z,2.20
2019-03-12T06:39:35.373Z,2.20
2019-03-12T06:42:07.689Z,2.30
2019-03-12T06:44:53.362Z,2.30
2019-03-12T06:47:28.958Z,2.30
2019-03-12T06:50:08.149Z,2.30
2019-03-12T06:52:40.446Z,2.30
2019-03-12T06:55:25.387Z,2.40
2019-03-12T06:58:21.250Z,2.50
2019-03-12T07:00:54.139Z,2.50
2019-03-12T07:03:27.018Z,2.60
2019-03-12T07:06:02.866Z,2.70
2019-03-12T07:08:35.265Z,2.70
2019-03-12T07:11:21.673Z,2.80
2019-03-12T07:13:54.510Z,2.70
2019-03-12T07:16:24.360Z,2.80
2019-03-12T07:18:54.277Z,2.80
2019-03-12T07:21:26.859Z,2.90
2019-03-12T07:24:05.725Z,3.00
2019-03-12T07:26:35.611Z,2.90
2019-03-12T07:29:08.334Z,2.90
2019-03-12T07:31:41.152Z,2.90
2019-03-12T07:34:11.018Z,3.20
2019-03-12T07:36:49.316Z,3.30
2019-03-12T07:39:34.198Z,3.30
2019-03-12T07:42:18.255Z,3.50
2019-03-12T07:45:06.585Z,3.60
2019-03-12T07:47:36.443Z,3.80
2019-03-12T07:50:25.761Z,3.90
2019-03-12T07:52:55.642Z,3.80
2019-03-12T07:55:29.894Z,3.80
2019-03-12T07:58:00.144Z,4.00
2019-03-12T08:00:30.089Z,4.10
2019-03-12T08:03:06.168Z,4.40
2019-03-12T08:05:48.137Z,4.50
2019-03-12T08:08:26.764Z,4.80
2019-03-12T08:11:11.657Z,4.90
2019-03-12T08:13:47.449Z,5.10
2019-03-12T08:16:17.378Z,5.10
2019-03-12T08:18:50.121Z,5.30
2019-03-12T08:21:22.934Z,5.30
2019-03-12T08:24:13.599Z,5.50
2019-03-12T08:26:42.561Z,5.60
2019-03-12T08:29:15.383Z,5.80
2019-03-12T08:31:47.973Z,6.10
2019-03-12T08:34:20.272Z,6.10
2019-03-12T08:36:56.147Z,7.70
2019-03-12T08:39:26.021Z,6.90
2019-03-12T08:42:18.335Z,7.00
2019-03-12T08:44:53.971Z,7.40
2019-03-12T08:47:35.873Z,7.80
2019-03-12T08:50:07.732Z,8.10
2019-03-12T08:52:49.692Z,8.70
2019-03-12T08:55:19.631Z,9.30
2019-03-12T08:57:55.268Z,9.10
2019-03-12T09:00:33.951Z,8.80
2019-03-12T09:03:12.841Z,9.00
2019-03-12T09:05:48.991Z,9.50
2019-03-12T09:08:21.610Z,9.70
2019-03-12T09:11:06.582Z,9.90
2019-03-12T09:13:42.060Z,10.10
2019-03-12T09:16:28.274Z,10.30
2019-03-12T09:19:01.038Z,10.80
2019-03-12T09:21:41.799Z,10.80
2019-03-12T09:24:23.636Z,10.70
2019-03-12T09:26:56.295Z,10.20
2019-03-12T09:29:26.182Z,10.40
2019-03-12T09:31:58.755Z,10.50
2019-03-12T09:34:28.677Z,10.40
2019-03-12T09:37:15.243Z,10.50
2019-03-12T09:39:57.330Z,11.00
2019-03-12T09:42:42.318Z,11.00
2019-03-12T09:45:12.197Z,10.90
2019-03-12T09:47:42.126Z,11.50
2019-03-12T09:50:21.154Z,11.90
2019-03-12T09:53:09.112Z,12.50
2019-03-12T09:55:38.990Z,12.90
2019-03-12T09:58:11.888Z,12.90
2019-03-12T10:00:56.906Z,12.70
2019-03-12T10:03:32.791Z,12.70
2019-03-12T10:06:18.969Z,11.80
2019-03-12T10:08:48.885Z,11.10
2019-03-12T10:11:18.833Z,11.50
2019-03-12T10:13:54.679Z,11.60
2019-03-12T10:16:33.287Z,11.70
2019-03-12T10:19:08.883Z,11.70
2019-03-12T10:21:38.838Z,12.20
2019-03-12T10:24:28.631Z,11.60
2019-03-12T10:27:09.556Z,11.80
2019-03-12T10:29:51.646Z,11.90
2019-03-12T10:32:21.603Z,11.80
2019-03-12T10:34:51.574Z,11.50
2019-03-12T10:37:27.081Z,11.80
2019-03-12T10:40:19.928Z,11.80
2019-03-12T10:43:09.856Z,11.80
2019-03-12T10:45:45.351Z,11.70
2019-03-12T10:48:17.625Z,11.50
2019-03-12T10:50:45.874Z,11.70
2019-03-12T10:53:14.124Z,11.70
2019-03-12T10:55:42.406Z,11.90
2019-03-12T10:58:10.720Z,12.00
2019-03-12T11:00:39.930Z,12.10
2019-03-12T11:03:08.263Z,12.20
2019-03-12T11:05:46.024Z,12.40
2019-03-12T11:08:06.980Z,13.10
2019-03-12T11:10:35.539Z,13.70
2019-03-12T11:13:03.835Z,13.40
2019-03-12T11:15:32.097Z,14.10
2019-03-12T11:18:00.430Z,14.80
2019-03-12T11:20:28.708Z,14.80
2019-03-12T11:22:57.032Z,13.90
2019-03-12T11:25:27.718Z,13.40
2019-03-12T11:27:55.407Z,14.50
2019-03-12T11:30:23.661Z,15.30
2019-03-12T11:32:57.715Z,14.90
2019-03-12T11:35:25.977Z,14.00
2019-03-12T11:37:54.332Z,13.90
2019-03-12T11:40:24.398Z,13.50
2019-03-12T11:42:52.772Z,12.90
2019-03-12T11:45:34.896Z,13.60
2019-03-12T11:47:51.078Z,13.30
2019-03-12T11:50:24.427Z,13.40
2019-03-12T11:52:57.148Z,13.70
2019-03-12T11:55:22.641Z,12.90
2019-03-12T11:57:50.912Z,13.70
2019-03-12T12:00:32.759Z,15.10
2019-03-12T12:03:01.014Z,16.00
2019-03-12T12:05:30.513Z,16.60
2019-03-12T12:07:58.755Z,16.80
2019-03-12T12:10:27.073Z,17.40
2019-03-12T12:12:55.325Z,16.90
2019-03-12T12:15:23.600Z,17.20
2019-03-12T12:17:51.847Z,16.90
2019-03-12T12:20:29.458Z,17.10
2019-03-12T12:22:50.077Z,16.30
2019-03-12T12:25:19.265Z,15.70
2019-03-12T12:27:47.534Z,16.20
2019-03-12T12:30:18.640Z,17.40
2019-03-12T12:32:47.065Z,18.10
2019-03-12T12:35:15.339Z,17.80
2019-03-12T12:37:43.608Z,16.70
2019-03-12T12:40:23.856Z,16.10
2019-03-12T12:42:52.198Z,16.10
2019-03-12T12:45:26.444Z,16.20
2019-03-12T12:47:54.697Z,16.30
2019-03-12T12:50:23.016Z,16.20
2019-03-12T12:52:51.258Z,16.00
2019-03-12T12:55:19.555Z,16.20
2019-03-12T12:57:47.786Z,16.60
2019-03-12T13:00:22.093Z,16.10
2019-03-12T13:02:50.363Z,15.50
2019-03-12T13:05:18.651Z,15.40
2019-03-12T13:07:47.046Z,15.40
2019-03-12T13:10:26.026Z,15.90
2019-03-12T13:12:54.312Z,16.00
2019-03-12T13:15:22.596Z,16.90
2019-03-12T13:17:50.852Z,17.40
2019-03-12T13:20:19.155Z,18.60
2019-03-12T13:22:47.430Z,18.10
2019-03-12T13:25:17.365Z,17.80
2019-03-12T13:27:45.706Z,17.80
2019-03-12T13:30:17.302Z,17.70
2019-03-12T13:32:45.642Z,17.50
2019-03-12T13:35:15.412Z,17.80
2019-03-12T13:37:43.725Z,18.50
2019-03-12T13:40:19.495Z,17.30
2019-03-12T13:42:47.804Z,16.70
2019-03-12T13:45:27.593Z,18.10
2019-03-12T13:47:56.261Z,17.50
2019-03-12T13:50:24.928Z,17.20
2019-03-12T13:52:53.234Z,18.60
2019-03-12T13:55:21.625Z,19.80
2019-03-12T13:57:50.244Z,21.00
2019-03-12T14:00:20.679Z,20.50
2019-03-12T14:02:49.047Z,19.10
2019-03-12T14:05:17.302Z,19.00
2019-03-12T14:07:45.598Z,18.30
2019-03-12T14:10:18.915Z,17.00
2019-03-12T14:12:47.211Z,17.90
2019-03-12T14:15:27.228Z,17.70
2019-03-12T14:17:55.525Z,18.50
2019-03-12T14:20:38.578Z,18.90
2019-03-12T14:23:07.052Z,18.00
2019-03-12T14:25:35.677Z,17.00
2019-03-12T14:28:03.978Z,17.20
2019-03-12T14:30:32.298Z,17.70
2019-03-12T14:33:00.584Z,18.20
2019-03-12T14:35:28.958Z,18.10
2019-03-12T14:37:57.210Z,17.10
2019-03-12T14:40:25.491Z,16.30
2019-03-12T14:42:53.742Z,17.20
2019-03-12T14:45:27.055Z,18.70
2019-03-12T14:47:55.366Z,17.20
2019-03-12T14:50:25.410Z,15.80
2019-03-12T14:52:59.790Z,14.80
2019-03-12T14:55:28.058Z,14.70
2019-03-12T14:57:56.306Z,15.60
2019-03-12T15:00:25.824Z,15.10
2019-03-12T15:02:54.126Z,16.30
2019-03-12T15:05:22.378Z,16.00
2019-03-12T15:07:50.650Z,16.20
2019-03-12T15:10:18.918Z,16.00
2019-03-12T15:12:47.220Z,16.60
2019-03-12T15:15:15.474Z,16.90
2019-03-12T15:17:46.397Z,16.90
2019-03-12T15:20:15.158Z,16.50
2019-03-12T15:22:43.518Z,17.10
2019-03-12T15:25:13.072Z,17.30
2019-03-12T15:27:41.342Z,17.10
2019-03-12T15:30:15.680Z,16.80
2019-03-12T15:32:43.991Z,16.00
2019-03-12T15:35:12.272Z,15.20
2019-03-12T15:37:40.508Z,14.40
2019-03-12T15:40:13.571Z,14.20
2019-03-12T15:42:41.808Z,13.70
2019-03-12T15:45:14.491Z,13.00
2019-03-12T15:47:42.811Z,12.70
2019-03-12T15:50:18.799Z,12.50
2019-03-12T15:52:45.761Z,12.60
2019-03-12T15:55:13.990Z,12.60
2019-03-12T15:57:42.238Z,12.80
2019-03-12T16:00:12.567Z,13.20
2019-03-12T16:02:40.810Z,13.10
2019-03-12T16:05:09.138Z,13.00
2019-03-12T16:07:37.520Z,12.90
2019-03-12T16:10:19.925Z,12.80
2019-03-12T16:12:48.274Z,12.40
2019-03-12T16:15:19.469Z,12.40
2019-03-12T16:17:47.832Z,12.30
2019-03-12T16:20:17.558Z,12.20
2019-03-12T16:22:45.782Z,12.30
2019-03-12T16:25:14.023Z,12.20
2019-03-12T16:27:42.275Z,12.10
2019-03-12T16:30:16.344Z,11.90
2019-03-12T16:32:44.631Z,11.50
2019-03-12T16:35:12.874Z,11.50
2019-03-12T16:37:41.182Z,11.50
2019-03-12T16:40:17.434Z,11.40
2019-03-12T16:42:45.697Z,11.50
2019-03-12T16:45:16.423Z,11.30
2019-03-12T16:47:44.712Z,11.20
2019-03-12T16:50:14.430Z,10.90
2019-03-12T16:52:42.668Z,10.90
2019-03-12T16:55:18.118Z,10.90
2019-03-12T16:57:46.423Z,10.90
2019-03-12T17:00:20.064Z,10.70
2019-03-12T17:02:48.346Z,10.70
2019-03-12T17:05:16.649Z,10.60
2019-03-12T17:07:44.870Z,10.40
2019-03-12T17:10:16.355Z,10.40
2019-03-12T17:12:44.744Z,10.40
2019-03-12T17:15:15.794Z,10.40
2019-03-12T17:17:44.040Z,10.30
2019-03-12T17:20:13.818Z,10.20
2019-03-12T17:22:42.088Z,10.30
2019-03-12T17:25:11.455Z,10.10
2019-03-12T17:27:39.715Z,10.00
2019-03-12T17:30:17.032Z,9.80
2019-03-12T17:32:45.298Z,9.80
2019-03-12T17:35:19.842Z,9.70
2019-03-12T17:37:49.018Z,9.50
2019-03-12T17:40:21.394Z,9.40
2019-03-12T17:42:49.655Z,9.30
2019-03-12T17:45:17.913Z,9.20
2019-03-12T17:47:46.155Z,9.00
2019-03-12T17:50:14.537Z,9.00
2019-03-12T17:52:42.767Z,9.00
2019-03-12T17:55:15.332Z,8.80
2019-03-12T17:57:43.706Z,8.80
2019-03-12T18:00:14.944Z,8.70
2019-03-12T18:02:43.298Z,8.70
2019-03-12T18:05:12.736Z,8.60
2019-03-12T18:07:41.097Z,8.50
2019-03-12T18:10:16.376Z,8.40
2019-03-12T18:12:44.680Z,8.30
2019-03-12T18:15:18.990Z,8.20
2019-03-12T18:17:45.870Z,8.10
2019-03-12T18:20:23.512Z,8.00
2019-03-12T18:22:51.768Z,7.90
2019-03-12T18:25:28.208Z,7.80
2019-03-12T18:27:57.579Z,7.60
2019-03-12T18:30:25.829Z,7.70
2019-03-12T18:32:54.131Z,7.70
2019-03-12T18:35:22.376Z,7.50
2019-03-12T18:37:50.680Z,7.40
2019-03-12T18:40:20.473Z,7.40
2019-03-12T18:42:48.848Z,7.30
2019-03-12T18:45:19.427Z,7.10
2019-03-12T18:47:47.761Z,7.10
2019-03-12T18:50:17.197Z,6.90
2019-03-12T18:52:48.409Z,6.90
2019-03-12T18:55:26.061Z,6.90
2019-03-12T18:57:54.329Z,6.90
2019-03-12T19:00:22.715Z,6.80
2019-03-12T19:02:55.122Z,6.70
2019-03-12T19:05:23.465Z,6.70
2019-03-12T19:07:51.852Z,6.60
2019-03-12T19:10:20.183Z,6.70
2019-03-12T19:12:48.476Z,6.60
2019-03-12T19:15:16.880Z,6.50
2019-03-12T19:17:45.334Z,6.40
2019-03-12T19:20:18.251Z,6.40
2019-03-12T19:22:49.452Z,6.30
2019-03-12T19:25:28.485Z,6.30
2019-03-12T19:28:00.562Z,6.30
2019-03-12T19:30:32.320Z,6.20
2019-03-12T19:33:08.370Z,6.30
2019-03-12T19:35:38.661Z,6.20
2019-03-12T19:38:15.771Z,6.20
2019-03-12T19:40:50.233Z,6.10
2019-03-12T19:43:18.549Z,6.10
2019-03-12T19:45:49.628Z,6.00
2019-03-12T19:48:17.886Z,6.10
2019-03-12T19:50:46.218Z,6.00
2019-03-12T19:53:14.536Z,5.90
2019-03-12T19:55:52.008Z,5.80
2019-03-12T19:58:21.469Z,5.80
2019-03-12T20:00:50.770Z,5.80
2019-03-12T20:03:19.037Z,5.70
2019-03-12T20:05:47.399Z,5.70
2019-03-12T20:08:22.610Z,5.70
2019-03-12T20:10:59.884Z,5.60
2019-03-12T20:14:04.655Z,5.60
2019-03-12T20:17:08.153Z,5.60
2019-03-12T20:19:45.891Z,5.60
2019-03-12T20:22:33.917Z,5.50
2019-03-12T20:25:17.638Z,5.50
2019-03-12T20:27:58.076Z,5.50
2019-03-12T20:31:03.153Z,5.50
2019-03-12T20:33:52.871Z,5.50
2019-03-12T20:36:53.027Z,5.40
2019-03-12T20:39:41.079Z,5.40
2019-03-12T20:42:45.711Z,5.30
2019-03-12T20:45:33.694Z,5.30
2019-03-12T20:48:21.709Z,5.30
2019-03-12T20:51:15.338Z,5.30
2019-03-12T20:53:49.827Z,5.20
2019-03-12T20:56:54.579Z,5.20
2019-03-12T20:59:42.314Z,5.10
2019-03-12T21:02:30.403Z,5.10
2019-03-12T21:05:19.961Z,5.10
2019-03-12T21:08:12.430Z,5.00
2019-03-12T21:11:17.176Z,5.00
2019-03-12T21:14:23.746Z,5.00
2019-03-12T21:17:13.719Z,4.90
2019-03-12T21:20:21.624Z,4.90
2019-03-12T21:22:56.917Z,4.80
2019-03-12T21:25:48.308Z,4.80
2019-03-12T21:28:47.183Z,4.80
2019-03-12T21:31:15.702Z,4.80
2019-03-12T21:33:45.953Z,4.80
2019-03-12T21:36:21.358Z,4.80
2019-03-12T21:38:49.769Z,4.70
2019-03-12T21:41:18.358Z,4.70
2019-03-12T21:43:47.454Z,4.70
2019-03-12T21:46:17.609Z,4.80
2019-03-12T21:48:51.731Z,4.70
2019-03-12T21:51:20.044Z,4.70
2019-03-12T21:53:50.104Z,4.70
2019-03-12T21:56:20.751Z,4.70
2019-03-12T21:58:49.365Z,4.70
2019-03-12T22:01:17.672Z,4.80
2019-03-12T22:03:45.957Z,4.70
2019-03-12T22:06:14.226Z,4.70
2019-03-12T22:08:42.498Z,4.70
2019-03-12T22:11:10.755Z,4.80
2019-03-12T22:13:38.996Z,4.80
2019-03-12T22:16:07.267Z,4.80
2019-03-12T22:18:35.569Z,4.90
2019-03-12T22:21:03.851Z,4.90
2019-03-12T22:23:41.472Z,4.90
2019-03-12T22:26:17.678Z,5.00
2019-03-12T22:28:46.023Z,5.00
2019-03-12T22:31:15.971Z,5.00
2019-03-12T22:33:45.899Z,5.00
2019-03-12T22:36:14.260Z,5.00
2019-03-12T22:38:42.637Z,5.10
2019-03-12T22:41:11.032Z,5.10
2019-03-12T22:43:39.435Z,5.10
2019-03-12T22:46:07.843Z,5.20
2019-03-12T22:48:36.138Z,5.10
2019-03-12T22:51:06.108Z,5.20
2019-03-12T22:53:36.044Z,5.20
2019-03-12T22:56:04.341Z,5.10
2019-03-12T22:58:32.698Z,5.10
2019-03-12T23:01:00.965Z,5.10
2019-03-12T23:03:29.262Z,5.20
2019-03-12T23:05:57.520Z,5.20
2019-03-12T23:08:28.291Z,5.20
2019-03-12T23:10:56.562Z,5.20
2019-03-12T23:13:24.858Z,5.20
2019-03-12T23:15:53.134Z,5.20
2019-03-12T23:18:21.395Z,5.20
2019-03-12T23:20:49.645Z,5.20
2019-03-12T23:23:17.951Z,5.20
2019-03-12T23:25:46.214Z,5.30
2019-03-12T23:28:14.461Z,5.30
2019-03-12T23:30:42.721Z,5.30
2019-03-12T23:33:10.992Z,5.20
2019-03-12T23:35:39.358Z,5.20
2019-03-12T23:38:09.776Z,5.20
2019-03-12T23:40:41.199Z,5.20
2019-03-12T23:43:09.569Z,5.20
2019-03-12T23:45:37.821Z,5.30
2019-03-12T23:48:06.100Z,5.30
2019-03-12T23:50:34.425Z,5.30
2019-03-12T23:53:02.674Z,5.30
2019-03-12T23:55:31.258Z,5.40
2019-03-12T23:57:59.563Z,5.30
